createdAt,value
2018-01-04T00:01:39.190Z,2.00
2018-01-04T00:04:06.764Z,5.80
2018-01-04T00:06:34.374Z,9.23
2018-01-04T00:09:01.976Z,3.57
2018-01-04T00:11:29.547Z,3.93
2018-01-04T00:13:57.190Z,4.80
2018-01-04T00:16:24.762Z,7.47
2018-01-04T00:18:52.332Z,4.73
2018-01-04T00:21:20.012Z,7.17
2018-01-04T00:23:47.578Z,3.07
2018-01-04T00:26:15.183Z,3.60
2018-01-04T00:28:43.851Z,5.60
2018-01-04T00:31:11.504Z,4.67
2018-01-04T00:33:39.167Z,8.40
2018-01-04T00:36:06.730Z,2.20
2018-01-04T00:38:34.334Z,2.43
2018-01-04T00:41:01.944Z,4.47
2018-01-04T00:43:29.551Z,3.93
2018-01-04T00:45:57.150Z,2.17
2018-01-04T00:48:24.728Z,2.87
2018-01-04T00:50:52.334Z,5.70
2018-01-04T00:53:19.903Z,2.53
2018-01-04T00:55:47.507Z,9.23
2018-01-04T00:58:15.077Z,4.20
2018-01-04T01:00:42.681Z,4.53
2018-01-04T01:03:10.249Z,3.30
2018-01-04T01:05:37.910Z,4.00
2018-01-04T01:08:05.480Z,3.73
2018-01-04T01:10:33.095Z,6.73
2018-01-04T01:13:00.663Z,3.40
2018-01-04T01:15:28.542Z,3.40
2018-01-04T01:17:56.103Z,3.07
2018-01-04T01:20:23.662Z,5.80
2018-01-04T01:22:51.226Z,6.17
2018-01-04T01:25:18.912Z,6.87
2018-01-04T01:27:46.483Z,8.43
2018-01-04T01:30:14.100Z,9.03
2018-01-04T01:32:41.666Z,6.00
2018-01-04T01:35:09.255Z,6.77
2018-01-04T01:37:36.831Z,3.37
2018-01-04T01:40:04.390Z,9.17
2018-01-04T01:42:32.000Z,12.17
2018-01-04T01:44:59.600Z,7.17
2018-01-04T01:47:27.264Z,4.03
2018-01-04T01:49:54.834Z,3.50
2018-01-04T01:52:22.399Z,3.50
2018-01-04T01:54:50.044Z,7.67
2018-01-04T01:57:17.687Z,8.80
2018-01-04T01:59:45.257Z,7.03
2018-01-04T02:02:12.823Z,7.00
2018-01-04T02:04:40.400Z,2.17
2018-01-04T02:07:07.967Z,8.47
2018-01-04T02:09:35.535Z,5.10
2018-01-04T02:12:03.107Z,6.10
2018-01-04T02:14:30.683Z,6.23
2018-01-04T02:16:58.303Z,6.97
2018-01-04T02:19:37.859Z,7.10
2018-01-04T02:22:17.462Z,5.93
2018-01-04T02:24:56.947Z,6.07
2018-01-04T02:27:36.511Z,12.60
2018-01-04T02:30:15.920Z,10.20
2018-01-04T02:32:55.363Z,7.27
2018-01-04T02:35:35.738Z,8.70
2018-01-04T02:38:16.165Z,7.33
2018-01-04T02:40:55.679Z,5.33
2018-01-04T02:43:35.210Z,7.20
2018-01-04T02:46:08.667Z,5.87
2018-01-04T02:48:36.239Z,6.77
2018-01-04T02:51:03.808Z,6.20
2018-01-04T02:53:31.619Z,8.27
2018-01-04T02:55:59.315Z,3.33
2018-01-04T02:58:26.923Z,5.40
2018-01-04T03:00:54.500Z,4.20
2018-01-04T03:03:22.065Z,5.33
2018-01-04T03:05:49.634Z,5.73
2018-01-04T03:08:17.255Z,7.73
2018-01-04T03:10:44.814Z,6.67
2018-01-04T03:13:12.419Z,4.93
2018-01-04T03:15:40.011Z,7.10
2018-01-04T03:18:07.617Z,5.10
2018-01-04T03:20:35.306Z,10.13
2018-01-04T03:23:08.626Z,5.30
2018-01-04T03:25:41.686Z,14.77
2018-01-04T03:28:14.959Z,2.80
2018-01-04T03:30:48.496Z,5.17
2018-01-04T03:33:21.734Z,5.17
2018-01-04T03:35:54.998Z,1.50
2018-01-04T03:38:28.178Z,10.00
2018-01-04T03:41:01.463Z,3.50
2018-01-04T03:43:34.741Z,8.40
2018-01-04T03:46:08.144Z,4.87
2018-01-04T03:48:41.350Z,6.37
2018-01-04T03:51:14.635Z,5.20
2018-01-04T03:53:47.964Z,4.20
2018-01-04T03:56:21.146Z,7.27
2018-01-04T03:58:54.334Z,3.47
2018-01-04T04:01:27.539Z,4.70
2018-01-04T04:03:55.207Z,3.97
2018-01-04T04:06:28.497Z,6.67
2018-01-04T04:08:56.162Z,1.97
2018-01-04T04:11:23.740Z,6.70
2018-01-04T04:13:51.306Z,8.43
2018-01-04T04:16:18.870Z,4.23
2018-01-04T04:18:46.479Z,3.50
2018-01-04T04:21:14.054Z,4.97
2018-01-04T04:23:41.734Z,5.93
2018-01-04T04:26:09.295Z,2.40
2018-01-04T04:28:36.906Z,13.47
2018-01-04T04:31:04.471Z,3.73
2018-01-04T04:33:32.070Z,6.57
2018-01-04T04:35:59.647Z,5.30
2018-01-04T04:38:27.254Z,2.83
2018-01-04T04:40:54.858Z,6.10
2018-01-04T04:43:22.473Z,4.07
2018-01-04T04:45:50.093Z,10.83
2018-01-04T04:48:17.750Z,6.90
2018-01-04T04:50:45.409Z,3.27
2018-01-04T04:53:12.983Z,4.40
2018-01-04T04:55:40.546Z,5.70
2018-01-04T04:58:08.108Z,4.37
2018-01-04T05:00:35.672Z,5.70
2018-01-04T05:03:03.260Z,6.40
2018-01-04T05:05:30.875Z,2.50
2018-01-04T05:07:58.467Z,6.57
2018-01-04T05:10:26.031Z,1.57
2018-01-04T05:12:53.605Z,3.10
2018-01-04T05:15:21.184Z,10.10
2018-01-04T05:17:48.782Z,5.50
2018-01-04T05:20:16.348Z,4.53
2018-01-04T05:22:43.915Z,3.60
2018-01-04T05:25:11.479Z,1.87
2018-01-04T05:27:39.124Z,4.23
2018-01-04T05:30:06.782Z,7.83
2018-01-04T05:32:34.350Z,5.73
2018-01-04T05:35:01.914Z,5.70
2018-01-04T05:37:29.494Z,2.35
2018-01-04T05:39:57.062Z,2.83
2018-01-04T05:42:24.695Z,3.33
2018-01-04T05:44:52.282Z,4.90
2018-01-04T05:47:19.854Z,4.87
2018-01-04T05:49:47.423Z,3.50
2018-01-04T05:52:14.987Z,4.20
2018-01-04T05:54:42.558Z,3.10
2018-01-04T05:57:10.130Z,4.53
2018-01-04T05:59:37.690Z,4.63
2018-01-04T06:02:05.252Z,2.30
2018-01-04T06:04:32.821Z,2.90
2018-01-04T06:07:00.411Z,1.90
2018-01-04T06:09:27.979Z,4.63
2018-01-04T06:11:55.591Z,9.73
2018-01-04T06:14:23.156Z,4.30
2018-01-04T06:16:50.755Z,2.30
2018-01-04T06:19:18.327Z,6.90
2018-01-04T06:21:45.981Z,6.23
2018-01-04T06:24:13.586Z,3.50
2018-01-04T06:26:41.201Z,3.07
2018-01-04T06:29:08.858Z,6.20
2018-01-04T06:31:36.456Z,4.33
2018-01-04T06:34:04.091Z,3.57
2018-01-04T06:36:31.659Z,4.07
2018-01-04T06:38:59.234Z,4.63
2018-01-04T06:41:26.886Z,2.60
2018-01-04T06:43:54.460Z,3.50
2018-01-04T06:46:22.026Z,3.00
2018-01-04T06:48:49.623Z,6.00
2018-01-04T06:51:17.187Z,6.90
2018-01-04T06:53:44.795Z,4.33
2018-01-04T06:56:12.447Z,4.90
2018-01-04T06:58:40.021Z,2.97
2018-01-04T07:01:07.591Z,4.10
2018-01-04T07:03:35.159Z,4.57
2018-01-04T07:06:02.795Z,5.50
2018-01-04T07:08:30.359Z,4.90
2018-01-04T07:10:57.922Z,6.97
2018-01-04T07:13:25.482Z,2.60
2018-01-04T07:15:53.043Z,5.27
2018-01-04T07:18:20.645Z,8.90
2018-01-04T07:20:48.259Z,8.27
2018-01-04T07:23:15.919Z,8.73
2018-01-04T07:25:43.592Z,2.33
2018-01-04T07:28:11.164Z,7.87
2018-01-04T07:30:38.759Z,4.60
2018-01-04T07:33:06.366Z,11.30
2018-01-04T07:35:33.967Z,8.57
2018-01-04T07:38:01.594Z,6.43
2018-01-04T07:40:29.310Z,6.10
2018-01-04T07:42:56.918Z,4.60
2018-01-04T07:45:24.502Z,13.93
2018-01-04T07:47:52.175Z,12.10
2018-01-04T07:50:19.747Z,5.90
2018-01-04T07:52:47.313Z,4.97
2018-01-04T07:55:14.882Z,11.73
2018-01-04T07:57:42.446Z,6.60
2018-01-04T08:00:10.061Z,6.67
2018-01-04T08:02:37.669Z,4.40
2018-01-04T08:05:05.235Z,9.73
2018-01-04T08:07:32.799Z,3.70
2018-01-04T08:10:00.370Z,11.40
2018-01-04T08:12:27.939Z,6.63
2018-01-04T08:14:55.547Z,10.40
2018-01-04T08:17:24.012Z,6.13
2018-01-04T08:19:51.660Z,13.90
2018-01-04T08:22:19.236Z,10.23
2018-01-04T08:24:46.804Z,7.87
2018-01-04T08:27:14.362Z,7.23
2018-01-04T08:29:41.955Z,6.40
2018-01-04T08:32:09.524Z,5.90
2018-01-04T08:34:37.087Z,8.13
2018-01-04T08:37:04.661Z,5.97
2018-01-04T08:39:32.251Z,5.07
2018-01-04T08:41:59.827Z,12.60
2018-01-04T08:44:27.474Z,6.87
2018-01-04T08:46:55.048Z,8.03
2018-01-04T08:49:22.870Z,10.17
2018-01-04T08:51:50.435Z,5.37
2018-01-04T08:54:18.004Z,6.83
2018-01-04T08:56:45.576Z,11.70
2018-01-04T08:59:13.980Z,7.90
2018-01-04T09:01:41.547Z,9.17
2018-01-04T09:04:09.111Z,5.07
2018-01-04T09:06:36.680Z,8.57
2018-01-04T09:09:04.260Z,11.83
2018-01-04T09:11:31.875Z,11.30
2018-01-04T09:13:59.451Z,8.80
2018-01-04T09:16:27.028Z,7.67
2018-01-04T09:18:55.485Z,5.57
2018-01-04T09:21:23.147Z,7.03
2018-01-04T09:23:50.722Z,17.40
2018-01-04T09:26:18.326Z,9.07
2018-01-04T09:28:45.939Z,15.53
2018-01-04T09:31:13.628Z,7.57
2018-01-04T09:33:41.253Z,10.40
2018-01-04T09:36:08.818Z,10.93
2018-01-04T09:38:36.483Z,9.90
2018-01-04T09:41:04.049Z,7.17
2018-01-04T09:43:31.619Z,7.57
2018-01-04T09:45:59.187Z,9.97
2018-01-04T09:48:26.755Z,7.03
2018-01-04T09:50:54.328Z,13.40
2018-01-04T09:53:21.907Z,16.83
2018-01-04T09:55:49.508Z,10.30
2018-01-04T09:58:17.111Z,9.13
2018-01-04T10:00:44.693Z,16.43
2018-01-04T10:03:12.306Z,8.37
2018-01-04T10:05:39.947Z,14.60
2018-01-04T10:08:07.503Z,7.50
2018-01-04T10:10:35.073Z,5.50
2018-01-04T10:13:02.647Z,8.00
2018-01-04T10:15:30.223Z,10.03
2018-01-04T10:17:57.792Z,9.40
2018-01-04T10:20:25.391Z,9.00
2018-01-04T10:22:52.964Z,12.27
2018-01-04T10:25:20.603Z,13.43
2018-01-04T10:27:48.178Z,8.93
2018-01-04T10:30:16.595Z,15.50
2018-01-04T10:32:44.163Z,7.87
2018-01-04T10:35:11.734Z,8.00
2018-01-04T10:37:39.335Z,10.70
2018-01-04T10:40:06.945Z,7.57
2018-01-04T10:42:34.567Z,6.63
2018-01-04T10:45:02.176Z,8.50
2018-01-04T10:47:29.754Z,19.10
2018-01-04T10:49:57.379Z,8.83
2018-01-04T10:52:24.964Z,11.27
2018-01-04T10:54:52.715Z,10.37
2018-01-04T10:57:20.348Z,10.33
2018-01-04T10:59:47.923Z,7.50
2018-01-04T11:02:15.495Z,13.30
2018-01-04T11:04:43.080Z,12.57
2018-01-04T11:07:10.820Z,9.63
2018-01-04T11:09:38.416Z,13.20
2018-01-04T11:12:05.988Z,13.30
2018-01-04T11:14:33.571Z,12.93
2018-01-04T11:17:01.157Z,17.23
2018-01-04T11:19:28.831Z,12.60
2018-01-04T11:21:56.654Z,9.47
2018-01-04T11:24:24.229Z,14.17
2018-01-04T11:26:51.843Z,11.63
2018-01-04T11:29:19.442Z,8.40
2018-01-04T11:31:47.055Z,11.40
2018-01-04T11:34:14.786Z,11.63
2018-01-04T11:36:42.354Z,12.80
2018-01-04T11:39:09.970Z,10.30
2018-01-04T11:41:37.540Z,13.60
2018-01-04T11:44:05.164Z,14.00
2018-01-04T11:46:32.744Z,17.97
2018-01-04T11:49:00.333Z,27.07
2018-01-04T11:51:27.907Z,18.50
2018-01-04T11:53:55.479Z,13.83
2018-01-04T11:56:23.056Z,19.20
2018-01-04T11:58:50.643Z,17.23
2018-01-04T12:01:18.216Z,15.10
2018-01-04T12:03:45.792Z,17.27
2018-01-04T12:06:13.366Z,19.47
2018-01-04T12:08:40.938Z,22.83
2018-01-04T12:11:08.505Z,28.40
2018-01-04T12:13:36.112Z,18.57
2018-01-04T12:16:03.754Z,20.23
2018-01-04T12:18:31.449Z,13.53
2018-01-04T12:20:59.056Z,15.03
2018-01-04T12:23:26.631Z,19.67
2018-01-04T12:25:54.289Z,16.83
2018-01-04T12:28:21.872Z,14.87
2018-01-04T12:30:49.458Z,18.60
2018-01-04T12:33:17.032Z,14.23
2018-01-04T12:35:44.607Z,11.83
2018-01-04T12:38:12.180Z,15.43
2018-01-04T12:40:39.771Z,13.03
2018-01-04T12:43:07.348Z,11.33
2018-01-04T12:48:46.801Z,13.80
2018-01-04T12:51:14.407Z,24.47
2018-01-04T12:53:41.988Z,23.07
2018-01-04T12:56:09.563Z,23.73
2018-01-04T12:58:37.157Z,19.60
2018-01-04T13:01:04.766Z,16.03
2018-01-04T13:03:32.343Z,17.17
2018-01-04T13:05:59.972Z,12.20
2018-01-04T13:08:27.638Z,10.40
2018-01-04T13:10:55.248Z,17.40
2018-01-04T13:13:22.816Z,12.43
2018-01-04T13:15:50.391Z,13.93
2018-01-04T13:18:18.087Z,12.63
2018-01-04T13:20:45.675Z,13.93
2018-01-04T13:23:13.252Z,11.67
2018-01-04T13:25:40.829Z,14.17
2018-01-04T13:28:08.450Z,19.73
2018-01-04T13:30:36.021Z,23.87
2018-01-04T13:33:03.659Z,12.27
2018-01-04T13:35:31.296Z,25.17
2018-01-04T13:37:58.873Z,14.23
2018-01-04T13:40:26.443Z,15.90
2018-01-04T13:42:54.027Z,10.90
2018-01-04T13:45:21.651Z,13.50
2018-01-04T13:47:49.227Z,16.33
2018-01-04T13:50:16.988Z,19.00
2018-01-04T13:52:44.601Z,19.07
2018-01-04T13:55:12.245Z,16.30
2018-01-04T13:57:39.872Z,23.03
2018-01-04T14:00:07.568Z,12.33
2018-01-04T14:02:35.204Z,17.23
2018-01-04T14:05:02.783Z,14.80
2018-01-04T14:07:30.474Z,12.93
2018-01-04T14:09:58.050Z,20.13
2018-01-04T14:12:25.626Z,13.93
2018-01-04T14:14:53.304Z,25.77
2018-01-04T14:17:20.988Z,14.57
2018-01-04T14:19:48.641Z,19.30
2018-01-04T14:22:16.256Z,14.17
2018-01-04T14:24:43.831Z,19.13
2018-01-04T14:27:11.531Z,17.60
2018-01-04T14:29:39.187Z,15.57
2018-01-04T14:32:06.763Z,17.97
2018-01-04T14:34:34.412Z,15.73
2018-01-04T14:37:02.021Z,11.20
2018-01-04T14:39:29.683Z,15.20
2018-01-04T14:41:57.294Z,15.63
2018-01-04T14:44:24.958Z,16.83
2018-01-04T14:46:52.558Z,18.70
2018-01-04T14:49:20.188Z,17.70
2018-01-04T14:51:47.766Z,19.33
2018-01-04T14:54:15.408Z,13.47
2018-01-04T14:56:43.036Z,17.50
2018-01-04T14:59:10.731Z,23.53
2018-01-04T15:01:38.304Z,15.80
2018-01-04T15:04:05.920Z,15.20
2018-01-04T15:06:33.524Z,14.17
2018-01-04T15:09:01.095Z,19.97
2018-01-04T15:11:28.676Z,12.97
2018-01-04T15:13:56.276Z,24.07
2018-01-04T15:16:23.858Z,21.70
2018-01-04T15:18:51.483Z,17.93
2018-01-04T15:21:19.238Z,24.73
2018-01-04T15:23:46.933Z,16.73
2018-01-04T15:26:14.646Z,22.77
2018-01-04T15:28:42.227Z,16.40
2018-01-04T15:31:09.835Z,24.40
2018-01-04T15:33:37.452Z,18.43
2018-01-04T15:36:05.073Z,18.67
2018-01-04T15:38:32.648Z,21.67
2018-01-04T15:41:00.228Z,16.27
2018-01-04T15:43:27.803Z,22.03
2018-01-04T15:45:55.371Z,21.37
2018-01-04T15:48:22.951Z,33.13
2018-01-04T15:50:50.522Z,21.73
2018-01-04T15:53:18.100Z,23.67
2018-01-04T15:55:45.845Z,20.30
2018-01-04T15:58:13.471Z,14.07
2018-01-04T16:00:41.040Z,12.77
2018-01-04T16:03:08.607Z,19.87
2018-01-04T16:05:36.180Z,18.37
2018-01-04T16:08:03.805Z,21.43
2018-01-04T16:10:31.384Z,11.30
2018-01-04T16:12:59.083Z,21.90
2018-01-04T16:15:26.746Z,17.70
2018-01-04T16:17:54.325Z,20.97
2018-01-04T16:20:21.903Z,17.83
2018-01-04T16:22:49.496Z,23.83
2018-01-04T16:25:17.070Z,15.43
2018-01-04T16:27:44.687Z,18.73
2018-01-04T16:30:12.302Z,32.70
2018-01-04T16:32:39.869Z,29.70
2018-01-04T16:35:07.443Z,30.43
2018-01-04T16:37:35.019Z,19.43
2018-01-04T16:40:02.596Z,36.17
2018-01-04T16:42:30.173Z,26.67
2018-01-04T16:44:57.747Z,29.70
2018-01-04T16:47:25.363Z,25.97
2018-01-04T16:49:53.006Z,20.87
2018-01-04T16:52:20.632Z,25.97
2018-01-04T16:54:48.204Z,20.20
2018-01-04T16:57:15.842Z,31.70
2018-01-04T16:59:43.411Z,27.77
2018-01-04T17:02:10.982Z,23.27
2018-01-04T17:04:38.674Z,18.90
2018-01-04T17:07:06.250Z,20.40
2018-01-04T17:09:33.883Z,17.83
2018-01-04T17:12:01.455Z,18.50
2018-01-04T17:14:29.071Z,25.73
2018-01-04T17:16:56.782Z,21.03
2018-01-04T17:19:24.456Z,14.60
2018-01-04T17:21:52.075Z,16.63
2018-01-04T17:24:19.826Z,21.00
2018-01-04T17:26:47.476Z,20.23
2018-01-04T17:29:15.049Z,24.97
2018-01-04T17:31:42.727Z,21.93
2018-01-04T17:34:10.326Z,15.83
2018-01-04T17:36:37.980Z,19.63
2018-01-04T17:39:05.560Z,18.60
2018-01-04T17:41:33.136Z,15.47
2018-01-04T17:44:00.740Z,18.60
2018-01-04T17:46:28.360Z,15.77
2018-01-04T17:48:55.919Z,10.20
2018-01-04T17:51:23.486Z,22.53
2018-01-04T17:53:51.166Z,21.43
2018-01-04T17:56:18.739Z,11.70
2018-01-04T17:58:46.378Z,14.87
2018-01-04T18:01:14.007Z,18.87
2018-01-04T18:03:41.620Z,15.50
2018-01-04T18:06:09.322Z,20.83
2018-01-04T18:08:36.911Z,19.63
2018-01-04T18:11:04.490Z,15.63
2018-01-04T18:13:32.108Z,10.67
2018-01-04T18:15:59.686Z,20.73
2018-01-04T18:18:27.335Z,13.53
2018-01-04T18:20:54.998Z,25.17
2018-01-04T18:23:22.620Z,13.70
2018-01-04T18:25:50.194Z,21.23
2018-01-04T18:28:17.894Z,15.17
2018-01-04T18:30:45.510Z,14.93
2018-01-04T18:33:13.116Z,26.40
2018-01-04T18:35:40.761Z,14.93
2018-01-04T18:38:08.442Z,21.93
2018-01-04T18:40:36.107Z,19.63
2018-01-04T18:43:03.683Z,10.63
2018-01-04T18:45:31.476Z,17.53
2018-01-04T18:47:59.048Z,9.47
2018-01-04T18:50:26.627Z,26.17
2018-01-04T18:52:54.313Z,12.27
2018-01-04T18:55:21.899Z,24.63
2018-01-04T18:57:49.541Z,17.30
2018-01-04T19:00:17.114Z,12.33
2018-01-04T19:02:44.758Z,23.57
2018-01-04T19:05:12.342Z,15.63
2018-01-04T19:07:39.983Z,24.73
2018-01-04T19:10:07.592Z,10.73
2018-01-04T19:12:35.308Z,14.80
2018-01-04T19:15:02.886Z,14.27
2018-01-04T19:17:30.461Z,23.83
2018-01-04T19:19:58.144Z,19.43
2018-01-04T19:22:26.116Z,23.50
2018-01-04T19:24:53.724Z,15.17
2018-01-04T19:27:21.384Z,10.13
2018-01-04T19:29:48.972Z,13.83
2018-01-04T19:32:16.553Z,15.57
2018-01-04T19:34:44.204Z,15.43
2018-01-04T19:37:11.828Z,12.17
2018-01-04T19:39:39.402Z,20.02
2018-01-04T19:42:07.001Z,16.43
2018-01-04T19:44:34.587Z,17.43
2018-01-04T19:47:02.181Z,18.73
2018-01-04T19:49:29.817Z,16.43
2018-01-04T19:51:57.419Z,18.40
2018-01-04T19:54:25.098Z,17.20
2018-01-04T19:56:52.683Z,8.57
2018-01-04T19:59:20.290Z,13.10
2018-01-04T20:01:47.876Z,11.57
2018-01-04T20:04:15.561Z,13.83
2018-01-04T20:06:43.160Z,19.70
2018-01-04T20:09:10.740Z,17.70
2018-01-04T20:11:38.434Z,12.83
2018-01-04T20:14:06.007Z,13.83
2018-01-04T20:16:33.673Z,15.73
2018-01-04T20:19:01.250Z,15.67
2018-01-04T20:21:28.835Z,15.17
2018-01-04T20:23:56.543Z,16.17
2018-01-04T20:26:24.124Z,19.40
2018-01-04T20:28:51.785Z,12.80
2018-01-04T20:31:19.499Z,10.10
2018-01-04T20:33:47.168Z,12.30
2018-01-04T20:36:14.754Z,10.53
2018-01-04T20:38:42.390Z,16.10
2018-01-04T20:41:09.999Z,19.40
2018-01-04T20:43:37.614Z,11.97
2018-01-04T20:46:05.214Z,19.27
2018-01-04T20:48:33.755Z,10.00
2018-01-04T20:51:01.465Z,14.77
2018-01-04T20:53:29.062Z,20.93
2018-01-04T20:55:56.655Z,13.03
2018-01-04T20:58:24.271Z,13.40
2018-01-04T21:00:51.934Z,15.83
2018-01-04T21:03:19.631Z,7.73
2018-01-04T21:05:47.212Z,13.23
2018-01-04T21:08:14.805Z,18.10
2018-01-04T21:10:42.418Z,20.57
2018-01-04T21:13:10.330Z,15.47
2018-01-04T21:15:37.951Z,10.43
2018-01-04T21:18:05.524Z,18.60
2018-01-04T21:20:33.103Z,10.33
2018-01-04T21:23:00.676Z,20.27
2018-01-04T21:25:28.248Z,12.83
2018-01-04T21:27:55.826Z,19.20
2018-01-04T21:30:23.403Z,16.67
2018-01-04T21:32:51.074Z,15.30
2018-01-04T21:35:18.736Z,12.90
2018-01-04T21:37:46.310Z,8.77
2018-01-04T21:40:13.950Z,9.20
2018-01-04T21:42:42.506Z,16.63
2018-01-04T21:45:10.110Z,13.40
2018-01-04T21:47:37.820Z,11.80
2018-01-04T21:50:05.376Z,12.23
2018-01-04T21:52:32.952Z,8.80
2018-01-04T21:55:00.523Z,11.20
2018-01-04T21:57:28.154Z,13.70
2018-01-04T21:59:55.771Z,8.97
2018-01-04T22:02:23.347Z,10.23
2018-01-04T22:04:50.972Z,10.33
2018-01-04T22:07:18.592Z,8.97
2018-01-04T22:09:46.170Z,14.63
2018-01-04T22:12:13.750Z,16.37
2018-01-04T22:14:41.360Z,9.53
2018-01-04T22:17:08.930Z,8.70
2018-01-04T22:19:36.614Z,10.90
2018-01-04T22:22:04.228Z,10.70
2018-01-04T22:24:31.920Z,12.47
2018-01-04T22:26:59.503Z,12.33
2018-01-04T22:29:27.147Z,14.40
2018-01-04T22:31:54.735Z,13.60
2018-01-04T22:34:22.388Z,13.90
2018-01-04T22:36:49.958Z,13.23
2018-01-04T22:39:17.534Z,14.40
2018-01-04T22:41:45.116Z,12.83
2018-01-04T22:44:12.692Z,11.30
2018-01-04T22:46:40.270Z,13.00
2018-01-04T22:49:07.857Z,8.47
2018-01-04T22:51:35.476Z,17.67
2018-01-04T22:54:03.059Z,9.70
2018-01-04T22:56:31.507Z,9.63
2018-01-04T22:58:59.071Z,8.27
2018-01-04T23:01:26.647Z,9.83
2018-01-04T23:03:54.223Z,16.37
2018-01-04T23:06:21.855Z,8.43
2018-01-04T23:08:49.428Z,14.50
2018-01-04T23:11:17.052Z,10.20
2018-01-04T23:13:44.748Z,12.10
2018-01-04T23:16:12.326Z,7.83
2018-01-04T23:18:40.009Z,9.10
2018-01-04T23:21:07.635Z,6.83
2018-01-04T23:23:36.213Z,7.00
2018-01-04T23:26:03.826Z,9.03
2018-01-04T23:28:31.400Z,6.03
2018-01-04T23:30:58.991Z,11.17
2018-01-04T23:33:26.660Z,8.27
2018-01-04T23:35:54.232Z,11.10
2018-01-04T23:38:21.882Z,10.50
2018-01-04T23:40:49.540Z,9.63
2018-01-04T23:43:17.119Z,9.37
2018-01-04T23:45:44.700Z,13.43
2018-01-04T23:48:12.270Z,8.17
2018-01-04T23:50:39.992Z,6.97
2018-01-04T23:53:07.576Z,13.70
2018-01-04T23:55:35.220Z,12.13
2018-01-04T23:58:02.797Z,6.83
